Wetterstation Vordersexau
Wetterdaten: Woche 21.02.11 - 27.02.11 (KW8)
Datum Zeit Temp. A. Feuchte A. Luftdruck Regen Wind Richtung Taupunkt Windchill Windben
21.02.2011 00:00 0,4 C 87 % 1012,7 hPa 0,0 l/m 0,0 km/h W -1,5 C 0,4 C 0,0 km/h
21.02.2011 01:00 0,3 C 87 % 1012,9 hPa 0,0 l/m 0,0 km/h W -1,6 C 0,3 C 0,0 km/h
21.02.2011 02:00 0,3 C 87 % 1012,8 hPa 0,0 l/m 0,0 km/h W -1,6 C 0,3 C 0,0 km/h
21.02.2011 03:00 0,3 C 87 % 1012,9 hPa 0,0 l/m 0,0 km/h W -1,6 C 0,3 C 0,0 km/h
21.02.2011 04:00 0,4 C 87 % 1012,8 hPa 0,0 l/m 0,0 km/h W-SW -1,5 C 0,4 C 0,0 km/h
21.02.2011 05:00 0,4 C 86 % 1013,0 hPa 0,0 l/m 0,0 km/h W -1,7 C 0,4 C 0,0 km/h
21.02.2011 06:00 0,4 C 86 % 1013,2 hPa 0,0 l/m 0,0 km/h W -1,7 C 0,4 C 0,0 km/h
21.02.2011 07:00 0,1 C 86 % 1013,4 hPa 0,0 l/m 0,0 km/h W -2,0 C 0,1 C 0,0 km/h
21.02.2011 08:00 0,1 C 86 % 1013,5 hPa 0,0 l/m 0,0 km/h W -2,0 C 0,1 C 0,0 km/h
21.02.2011 09:00 0,1 C 86 % 1013,8 hPa 0,0 l/m 0,0 km/h W -2,0 C 0,1 C 0,0 km/h
21.02.2011 10:00 0,2 C 87 % 1013,9 hPa 0,0 l/m 0,0 km/h W -1,7 C 0,2 C 0,0 km/h
21.02.2011 11:00 0,3 C 87 % 1013,8 hPa 0,0 l/m 0,0 km/h W -1,6 C 0,3 C 0,0 km/h
21.02.2011 12:00 0,7 C 88 % 1013,5 hPa 0,0 l/m 0,0 km/h W -1,1 C 0,7 C 0,0 km/h
21.02.2011 13:00 0,8 C 89 % 1013,2 hPa 0,4 l/m 0,0 km/h W -0,8 C 0,8 C 0,0 km/h
21.02.2011 14:00 1,0 C 89 % 1012,9 hPa 0,0 l/m 0,0 km/h W -0,6 C 1,0 C 0,0 km/h
21.02.2011 15:00 0,6 C 89 % 1012,9 hPa 0,0 l/m 0,0 km/h W -1,0 C 0,6 C 0,0 km/h
21.02.2011 16:00 0,6 C 89 % 1012,4 hPa 0,0 l/m 0,0 km/h W -1,0 C 0,6 C 0,0 km/h
21.02.2011 17:00 0,3 C 89 % 1011,3 hPa 0,0 l/m 0,0 km/h W -1,3 C 0,3 C 0,0 km/h
21.02.2011 18:00 0,2 C 89 % 1011,4 hPa 0,0 l/m 0,0 km/h W -1,4 C 0,2 C 0,0 km/h
21.02.2011 19:00 -0,1 C 88 % 1011,8 hPa 0,4 l/m 0,0 km/h W -1,8 C -0,1 C 0,0 km/h
21.02.2011 20:00 -0,2 C 88 % 1011,3 hPa 0,0 l/m 0,0 km/h W -1,9 C -0,2 C 0,0 km/h
21.02.2011 21:00 -0,2 C 88 % 1011,0 hPa 0,0 l/m 0,0 km/h W -1,9 C -0,2 C 0,0 km/h
21.02.2011 22:00 -0,2 C 88 % 1010,8 hPa 0,0 l/m 0,0 km/h W -1,9 C -0,2 C 0,0 km/h
21.02.2011 23:00 -0,2 C 88 % 1010,8 hPa 0,0 l/m 0,0 km/h W -1,9 C -0,2 C 0,0 km/h
22.02.2011 00:00 -0,2 C 88 % 1010,6 hPa 0,0 l/m 0,0 km/h W -1,9 C -0,2 C 0,0 km/h
22.02.2011 01:00 -0,4 C 88 % 1010,6 hPa 0,0 l/m 0,0 km/h W -2,1 C -0,4 C 0,0 km/h
22.02.2011 02:00 -0,4 C 88 % 1010,2 hPa 0,0 l/m 0,0 km/h W -2,1 C -0,4 C 0,0 km/h
22.02.2011 03:00 -0,5 C 88 % 1010,2 hPa 0,0 l/m 0,0 km/h W -2,2 C -0,5 C 0,0 km/h
22.02.2011 04:00 -0,6 C 88 % 1010,3 hPa 0,0 l/m 0,0 km/h W -2,3 C -0,6 C 0,0 km/h
22.02.2011 05:00 -0,7 C 89 % 1010,5 hPa 0,0 l/m 0,0 km/h W -2,3 C -0,7 C 0,0 km/h
22.02.2011 06:00 -0,7 C 89 % 1010,5 hPa 0,0 l/m 0,0 km/h W -2,3 C -0,7 C 0,0 km/h
22.02.2011 07:00 -0,7 C 89 % 1010,6 hPa 0,0 l/m 0,0 km/h W -2,3 C -0,7 C 0,0 km/h
22.02.2011 08:00 -0,5 C 89 % 1010,9 hPa 0,0 l/m 0,0 km/h W -2,1 C -0,5 C 0,0 km/h
22.02.2011 09:00 -0,2 C 89 % 1011,3 hPa 0,0 l/m 0,0 km/h W -1,8 C -0,2 C 0,0 km/h
22.02.2011 10:00 -0,1 C 89 % 1011,9 hPa 0,0 l/m 0,0 km/h W -1,7 C -0,1 C 0,0 km/h
22.02.2011 11:00 0,3 C 89 % 1012,4 hPa 0,0 l/m 0,0 km/h W -1,3 C 0,3 C 0,0 km/h
22.02.2011 12:00 0,8 C 89 % 1012,7 hPa 0,0 l/m 0,0 km/h W -0,8 C 0,8 C 0,0 km/h
22.02.2011 13:00 0,7 C 89 % 1012,8 hPa 0,0 l/m 0,0 km/h W -0,9 C 0,7 C 0,0 km/h
22.02.2011 14:00 0,4 C 88 % 1013,0 hPa 0,0 l/m 0,0 km/h W -1,3 C 0,4 C 0,0 km/h
22.02.2011 15:00 0,5 C 89 % 1013,6 hPa 0,0 l/m 0,0 km/h W -1,1 C 0,5 C 0,0 km/h
22.02.2011 16:00 0,9 C 88 % 1014,2 hPa 0,0 l/m 0,0 km/h W -0,9 C 0,9 C 0,0 km/h
22.02.2011 17:00 0,4 C 88 % 1015,2 hPa 0,0 l/m 0,0 km/h W -1,3 C 0,4 C 0,0 km/h
22.02.2011 18:00 -1,8 C 89 % 1016,0 hPa 0,0 l/m 0,0 km/h W -3,4 C -1,8 C 0,0 km/h
22.02.2011 19:00 -2,6 C 89 % 1016,7 hPa 0,0 l/m 0,0 km/h W -4,2 C -2,6 C 0,0 km/h
22.02.2011 20:00 -3,1 C 90 % 1017,0 hPa 0,0 l/m 0,0 km/h W -4,5 C -3,1 C 0,0 km/h
22.02.2011 21:00 -4,1 C 89 % 1017,8 hPa 0,0 l/m 0,0 km/h W -5,6 C -4,1 C 0,0 km/h
22.02.2011 22:00 -4,7 C 90 % 1018,6 hPa 0,0 l/m 0,0 km/h W -6,1 C -4,7 C 0,0 km/h
22.02.2011 23:00 -4,4 C 89 % 1019,1 hPa 0,0 l/m 0,0 km/h W -5,9 C -4,4 C 0,0 km/h
23.02.2011 00:00 -4,9 C 89 % 1019,4 hPa 0,0 l/m 0,0 km/h W -6,4 C -4,9 C 0,0 km/h
23.02.2011 01:00 -5,1 C 89 % 1019,7 hPa 0,0 l/m 0,0 km/h W -6,6 C -5,1 C 0,0 km/h
23.02.2011 02:00 -5,7 C 90 % 1020,1 hPa 0,0 l/m 0,0 km/h W -7,1 C -5,7 C 0,0 km/h
23.02.2011 03:00 -6,1 C 89 % 1020,7 hPa 0,0 l/m 0,0 km/h W -7,6 C -6,1 C 0,0 km/h
23.02.2011 04:00 -5,9 C 89 % 1020,9 hPa 0,0 l/m 0,0 km/h W -7,4 C -5,9 C 0,0 km/h
23.02.2011 05:00 -6,4 C 89 % 1021,3 hPa 0,0 l/m 0,0 km/h W -7,9 C -6,4 C 0,0 km/h
23.02.2011 06:00 -6,8 C 89 % 1021,8 hPa 0,0 l/m 0,0 km/h W -8,3 C -6,8 C 0,0 km/h
23.02.2011 07:00 -7,4 C 89 % 1022,6 hPa 0,0 l/m 0,0 km/h W -8,9 C -7,4 C 0,0 km/h
23.02.2011 08:00 -5,1 C 89 % 1023,2 hPa 0,0 l/m 0,0 km/h W -6,6 C -5,1 C 0,0 km/h
23.02.2011 09:00 0,5 C 88 % 1023,3 hPa 0,0 l/m 0,0 km/h W -1,3 C 0,5 C 0,0 km/h
23.02.2011 10:00 3,8 C 78 % 1023,8 hPa 0,0 l/m 0,0 km/h W 0,3 C 3,8 C 0,0 km/h
23.02.2011 11:00 4,9 C 71 % 1024,5 hPa 0,4 l/m 0,0 km/h W-SW 0,1 C 4,9 C 0,0 km/h
23.02.2011 12:00 5,4 C 68 % 1023,8 hPa 0,0 l/m 0,0 km/h W-NW -0,0 C 5,4 C 0,0 km/h
23.02.2011 13:00 5,5 C 67 % 1023,2 hPa 0,0 l/m 1,3 km/h W-SW -0,1 C 5,5 C 0,7 km/h
23.02.2011 14:00 7,5 C 65 % 1022,4 hPa 0,7 l/m 1,9 km/h SW 1,4 C 7,5 C 1,1 km/h
23.02.2011 15:00 8,4 C 59 % 1022,1 hPa 0,4 l/m 1,3 km/h W 0,9 C 8,4 C 0,7 km/h
23.02.2011 16:00 6,4 C 62 % 1022,1 hPa 0,0 l/m 0,0 km/h O-SO -0,3 C 6,4 C 0,0 km/h
23.02.2011 17:00 2,7 C 77 % 1022,5 hPa 0,0 l/m 0,0 km/h O-SO -0,9 C 2,7 C 0,0 km/h
23.02.2011 18:00 0,0 C 85 % 1022,5 hPa 0,0 l/m 0,0 km/h SO -2,2 C 0,0 C 0,0 km/h
23.02.2011 19:00 -0,7 C 88 % 1022,9 hPa 0,0 l/m 0,0 km/h SO -2,4 C -0,7 C 0,0 km/h
23.02.2011 20:00 -0,9 C 88 % 1022,5 hPa 0,0 l/m 0,0 km/h SO -2,6 C -0,9 C 0,0 km/h
23.02.2011 21:00 -1,1 C 89 % 1022,5 hPa 0,0 l/m 0,0 km/h NO -2,7 C -1,1 C 0,0 km/h
23.02.2011 22:00 -0,9 C 89 % 1022,6 hPa 0,0 l/m 0,0 km/h O-SO -2,5 C -0,9 C 0,0 km/h
23.02.2011 23:00 -0,8 C 89 % 1022,2 hPa 0,0 l/m 0,0 km/h SO -2,4 C -0,8 C 0,0 km/h
24.02.2011 00:00 -1,1 C 89 % 1022,6 hPa 0,0 l/m 0,0 km/h SO -2,7 C -1,1 C 0,0 km/h
24.02.2011 01:00 -1,8 C 89 % 1022,6 hPa 0,0 l/m 0,0 km/h O-NO -3,4 C -1,8 C 0,0 km/h
24.02.2011 02:00 -1,1 C 89 % 1022,3 hPa 0,0 l/m 0,0 km/h SO -2,7 C -1,1 C 0,0 km/h
24.02.2011 03:00 -0,7 C 89 % 1021,8 hPa 0,0 l/m 1,9 km/h SO -2,3 C -0,7 C 1,1 km/h
24.02.2011 04:00 -0,6 C 89 % 1021,7 hPa 0,0 l/m 0,0 km/h O-SO -2,2 C -0,6 C 0,0 km/h
24.02.2011 05:00 -0,4 C 88 % 1022,0 hPa 0,0 l/m 0,0 km/h O-SO -2,1 C -0,4 C 0,0 km/h
24.02.2011 06:00 -0,1 C 88 % 1022,3 hPa 0,0 l/m 0,0 km/h N-NW -1,8 C -0,1 C 0,0 km/h
24.02.2011 07:00 -0,1 C 88 % 1022,5 hPa 0,0 l/m 0,0 km/h O-NO -1,8 C -0,1 C 0,0 km/h
24.02.2011 08:00 0,4 C 88 % 1023,4 hPa 0,0 l/m 0,0 km/h NO -1,3 C 0,4 C 0,0 km/h
24.02.2011 09:00 1,0 C 87 % 1023,2 hPa 0,0 l/m 0,0 km/h SO -0,9 C 1,0 C 0,0 km/h
24.02.2011 10:00 3,4 C 87 % 1023,4 hPa 0,0 l/m 0,0 km/h SO 1,4 C 3,4 C 0,0 km/h
24.02.2011 11:00 4,8 C 82 % 1023,4 hPa 0,0 l/m 0,0 km/h S-SO 2,0 C 4,8 C 0,0 km/h
24.02.2011 12:00 5,6 C 80 % 1023,4 hPa 0,0 l/m 0,0 km/h SO 2,4 C 5,6 C 0,0 km/h
24.02.2011 13:00 5,6 C 79 % 1023,3 hPa 0,0 l/m 0,0 km/h O-SO 2,3 C 5,6 C 0,0 km/h
24.02.2011 14:00 5,8 C 79 % 1023,3 hPa 0,0 l/m 0,0 km/h S-SO 2,4 C 5,8 C 0,0 km/h
24.02.2011 15:00 4,9 C 82 % 1023,4 hPa 0,0 l/m 3,2 km/h S-SO 2,1 C 4,9 C 1,8 km/h
24.02.2011 16:00 4,1 C 87 % 1023,6 hPa 0,4 l/m 0,0 km/h S-SO 2,1 C 4,1 C 0,0 km/h
24.02.2011 17:00 3,8 C 88 % 1024,0 hPa 0,0 l/m 0,0 km/h S-SO 2,0 C 3,8 C 0,0 km/h
24.02.2011 18:00 3,6 C 88 % 1024,5 hPa 0,0 l/m 0,0 km/h SO 1,8 C 3,6 C 0,0 km/h
24.02.2011 19:00 3,4 C 88 % 1025,2 hPa 0,0 l/m 0,0 km/h SO 1,6 C 3,4 C 0,0 km/h
24.02.2011 20:00 3,3 C 88 % 1025,3 hPa 0,0 l/m 0,0 km/h SO 1,5 C 3,3 C 0,0 km/h
24.02.2011 21:00 3,3 C 87 % 1025,7 hPa 0,4 l/m 0,0 km/h O 1,3 C 3,3 C 0,0 km/h
24.02.2011 22:00 3,4 C 87 % 1025,6 hPa 0,0 l/m 0,0 km/h SO 1,4 C 3,4 C 0,0 km/h
24.02.2011 23:00 3,5 C 87 % 1025,6 hPa 0,4 l/m 0,0 km/h O-NO 1,5 C 3,5 C 0,0 km/h
25.02.2011 00:00 3,6 C 87 % 1025,8 hPa 0,0 l/m 0,0 km/h O-NO 1,6 C 3,6 C 0,0 km/h
25.02.2011 01:00 3,6 C 87 % 1025,9 hPa 0,0 l/m 0,0 km/h O-SO 1,6 C 3,6 C 0,0 km/h
25.02.2011 02:00 3,6 C 87 % 1025,9 hPa 0,0 l/m 0,0 km/h O-SO 1,6 C 3,6 C 0,0 km/h
25.02.2011 03:00 3,6 C 87 % 1025,8 hPa 0,0 l/m 0,0 km/h SO 1,6 C 3,6 C 0,0 km/h
25.02.2011 04:00 3,7 C 86 % 1025,5 hPa 0,0 l/m 0,0 km/h SO 1,6 C 3,7 C 0,0 km/h
25.02.2011 05:00 3,8 C 86 % 1026,0 hPa 0,0 l/m 0,0 km/h SO 1,7 C 3,8 C 0,0 km/h
25.02.2011 06:00 3,8 C 86 % 1026,1 hPa 0,0 l/m 0,0 km/h SO 1,7 C 3,8 C 0,0 km/h
25.02.2011 07:00 3,8 C 86 % 1026,6 hPa 0,0 l/m 0,0 km/h SO 1,7 C 3,8 C 0,0 km/h
25.02.2011 08:00 4,2 C 86 % 1027,2 hPa 0,4 l/m 0,0 km/h SO 2,1 C 4,2 C 0,0 km/h
25.02.2011 09:00 4,9 C 86 % 1027,0 hPa 0,0 l/m 0,6 km/h SO 2,8 C 4,9 C 0,4 km/h
25.02.2011 10:00 6,9 C 87 % 1026,8 hPa 0,0 l/m 0,0 km/h NW 4,9 C 6,9 C 0,0 km/h
25.02.2011 11:00 8,4 C 88 % 1026,7 hPa 0,0 l/m 0,0 km/h NO 6,5 C 8,4 C 0,0 km/h
25.02.2011 12:00 9,9 C 83 % 1026,4 hPa 0,0 l/m 0,0 km/h W-NW 7,2 C 9,9 C 0,0 km/h
25.02.2011 13:00 10,1 C 80 % 1026,2 hPa 0,0 l/m 0,0 km/h N-NW 6,8 C 10,1 C 0,0 km/h
25.02.2011 14:00 8,6 C 84 % 1025,7 hPa 0,0 l/m 1,3 km/h N-NO 6,1 C 8,6 C 0,7 km/h
25.02.2011 15:00 8,5 C 84 % 1025,5 hPa 0,0 l/m 0,0 km/h N-NO 6,0 C 8,5 C 0,0 km/h
25.02.2011 16:00 8,9 C 84 % 1025,4 hPa 0,0 l/m 0,0 km/h N-NO 6,3 C 8,9 C 0,0 km/h
25.02.2011 17:00 8,1 C 85 % 1025,5 hPa 0,0 l/m 0,0 km/h O-SO 5,7 C 8,1 C 0,0 km/h
25.02.2011 18:00 6,9 C 87 % 1025,3 hPa 0,0 l/m 1,3 km/h N-NW 4,9 C 6,9 C 0,7 km/h
25.02.2011 19:00 6,2 C 88 % 1025,3 hPa 0,0 l/m 1,3 km/h N 4,4 C 6,2 C 0,7 km/h
25.02.2011 20:00 5,8 C 89 % 1025,1 hPa 0,0 l/m 0,0 km/h W 4,1 C 5,8 C 0,0 km/h
25.02.2011 21:00 5,6 C 88 % 1025,0 hPa 0,0 l/m 0,0 km/h W-NW 3,8 C 5,6 C 0,0 km/h
25.02.2011 22:00 5,4 C 88 % 1024,6 hPa 0,0 l/m 0,0 km/h SW 3,6 C 5,4 C 0,0 km/h
25.02.2011 23:00 5,3 C 88 % 1024,3 hPa 0,0 l/m 0,0 km/h S-SO 3,5 C 5,3 C 0,0 km/h
26.02.2011 00:00 5,2 C 87 % 1023,4 hPa 0,0 l/m 0,0 km/h S-SO 3,2 C 5,2 C 0,0 km/h
26.02.2011 01:00 3,9 C 88 % 1022,9 hPa 0,0 l/m 0,0 km/h N-NW 2,1 C 3,9 C 0,0 km/h
26.02.2011 02:00 4,4 C 87 % 1022,6 hPa 0,0 l/m 0,0 km/h SO 2,4 C 4,4 C 0,0 km/h
26.02.2011 03:00 4,4 C 87 % 1021,8 hPa 0,0 l/m 0,0 km/h SO 2,4 C 4,4 C 0,0 km/h
26.02.2011 04:00 4,2 C 86 % 1020,7 hPa 0,0 l/m 0,0 km/h O-NO 2,1 C 4,2 C 0,0 km/h
26.02.2011 05:00 2,8 C 87 % 1020,2 hPa 0,0 l/m 0,0 km/h SO 0,9 C 2,8 C 0,0 km/h
26.02.2011 06:00 2,9 C 86 % 1020,1 hPa 0,0 l/m 0,0 km/h SO 0,8 C 2,9 C 0,0 km/h
26.02.2011 07:00 2,5 C 87 % 1019,1 hPa 0,0 l/m 0,0 km/h W-NW 0,6 C 2,5 C 0,0 km/h
26.02.2011 08:00 5,4 C 84 % 1018,7 hPa 0,0 l/m 0,0 km/h SO 2,9 C 5,4 C 0,0 km/h
26.02.2011 09:00 5,1 C 88 % 1018,3 hPa 0,0 l/m 10,4 km/h W-NW 3,3 C 1,9 C 5,8 km/h
26.02.2011 10:00 8,7 C 84 % 1017,7 hPa 0,0 l/m 0,0 km/h W-SW 6,2 C 8,7 C 0,0 km/h
26.02.2011 11:00 10,1 C 71 % 1017,0 hPa 0,0 l/m 0,0 km/h W 5,1 C 10,1 C 0,0 km/h
26.02.2011 12:00 8,9 C 81 % 1016,8 hPa 0,0 l/m 1,9 km/h W-SW 5,8 C 8,9 C 1,1 km/h
26.02.2011 13:00 8,0 C 81 % 1015,8 hPa 0,0 l/m 0,0 km/h W 4,9 C 8,0 C 0,0 km/h
26.02.2011 14:00 8,3 C 80 % 1015,1 hPa 0,0 l/m 2,6 km/h S 5,1 C 8,3 C 1,4 km/h
26.02.2011 15:00 9,3 C 76 % 1014,3 hPa 0,0 l/m 7,1 km/h S-SO 5,3 C 8,8 C 4,0 km/h
26.02.2011 16:00 8,1 C 80 % 1013,3 hPa 0,0 l/m 0,0 km/h SW 4,9 C 8,1 C 0,0 km/h
26.02.2011 17:00 7,9 C 80 % 1012,7 hPa 0,0 l/m 3,2 km/h W-SW 4,7 C 7,9 C 1,8 km/h
26.02.2011 18:00 7,9 C 79 % 1012,3 hPa 0,0 l/m 21,4 km/h W 4,5 C 0,1 C 11,9 km/h
26.02.2011 19:00 7,6 C 81 % 1012,5 hPa 0,0 l/m 15,6 km/h S 4,6 C 2,0 C 8,6 km/h
26.02.2011 20:00 5,8 C 88 % 1012,3 hPa 0,7 l/m 25,9 km/h S-SO 4,0 C -4,1 C 14,4 km/h
26.02.2011 21:00 4,9 C 88 % 1012,1 hPa 1,1 l/m 3,2 km/h W 3,1 C 4,9 C 1,8 km/h
26.02.2011 22:00 5,5 C 88 % 1011,9 hPa 0,0 l/m 2,6 km/h NO 3,7 C 5,5 C 1,4 km/h
26.02.2011 23:00 5,6 C 89 % 1011,5 hPa 0,0 l/m 0,0 km/h S-SW 3,9 C 5,6 C 0,0 km/h
27.02.2011 00:00 5,4 C 89 % 1011,6 hPa 0,0 l/m 0,0 km/h N-NO 3,7 C 5,4 C 0,0 km/h
27.02.2011 01:00 5,4 C 88 % 1011,6 hPa 0,4 l/m 0,0 km/h NO 3,6 C 5,4 C 0,0 km/h
27.02.2011 02:00 5,4 C 88 % 1011,2 hPa 0,0 l/m 0,0 km/h SO 3,6 C 5,4 C 0,0 km/h
27.02.2011 03:00 5,3 C 87 % 1010,9 hPa 0,4 l/m 0,0 km/h O-SO 3,3 C 5,3 C 0,0 km/h
27.02.2011 04:00 5,2 C 87 % 1011,0 hPa 0,0 l/m 0,0 km/h O-SO 3,2 C 5,2 C 0,0 km/h
27.02.2011 05:00 5,1 C 87 % 1011,2 hPa 0,0 l/m 0,0 km/h W 3,1 C 5,1 C 0,0 km/h
27.02.2011 06:00 5,2 C 87 % 1011,6 hPa 0,4 l/m 2,6 km/h S-SO 3,2 C 5,2 C 1,4 km/h
27.02.2011 07:00 4,9 C 86 % 1012,0 hPa 0,4 l/m 0,0 km/h S-SO 2,8 C 4,9 C 0,0 km/h
27.02.2011 08:00 5,3 C 86 % 1012,7 hPa 0,0 l/m 0,0 km/h W 3,2 C 5,3 C 0,0 km/h
27.02.2011 09:00 6,1 C 87 % 1013,1 hPa 0,0 l/m 0,0 km/h W-SW 4,1 C 6,1 C 0,0 km/h
27.02.2011 10:00 6,8 C 88 % 1013,4 hPa 0,0 l/m 7,8 km/h W 5,0 C 5,6 C 4,3 km/h
27.02.2011 11:00 7,1 C 89 % 1013,7 hPa 0,0 l/m 0,6 km/h N-NO 5,4 C 7,1 C 0,4 km/h
27.02.2011 12:00 6,2 C 89 % 1014,1 hPa 1,4 l/m 0,0 km/h O 4,5 C 6,2 C 0,0 km/h
27.02.2011 13:00 7,4 C 87 % 1014,3 hPa 0,0 l/m 0,0 km/h O-SO 5,4 C 7,4 C 0,0 km/h
27.02.2011 14:00 8,3 C 86 % 1014,2 hPa 0,0 l/m 0,0 km/h O-SO 6,1 C 8,3 C 0,0 km/h
27.02.2011 15:00 6,9 C 85 % 1014,4 hPa 0,4 l/m 0,0 km/h N 4,6 C 6,9 C 0,0 km/h
27.02.2011 16:00 5,2 C 88 % 1014,8 hPa 1,8 l/m 0,0 km/h N-NW 3,4 C 5,2 C 0,0 km/h
27.02.2011 17:00 4,7 C 88 % 1015,3 hPa 0,4 l/m 0,0 km/h SO 2,9 C 4,7 C 0,0 km/h
27.02.2011 18:00 4,6 C 89 % 1015,9 hPa 0,0 l/m 0,0 km/h O-SO 2,9 C 4,6 C 0,0 km/h
27.02.2011 19:00 4,2 C 89 % 1016,5 hPa 0,0 l/m 0,0 km/h O-SO 2,6 C 4,2 C 0,0 km/h
27.02.2011 20:00 3,3 C 89 % 1016,6 hPa 0,0 l/m 0,0 km/h O-SO 1,7 C 3,3 C 0,0 km/h
27.02.2011 21:00 2,1 C 89 % 1017,0 hPa 0,0 l/m 0,0 km/h O-SO 0,5 C 2,1 C 0,0 km/h
27.02.2011 22:00 1,3 C 89 % 1017,2 hPa 0,0 l/m 0,0 km/h O-SO -0,3 C 1,3 C 0,0 km/h
27.02.2011 23:00 1,8 C 88 % 1017,5 hPa 0,0 l/m 0,0 km/h O-SO 0,0 C 1,8 C 0,0 km/h
Min-Datum _ 23.02.11 23.02.11 22.02.11 - 21.02.11 - 23.02.11 23.02.11 21.02.11
_ Min-Zeit 07:30 15:30 02:30 - 00:30 - 07:30 07:30 00:30
Minimum _ -7,4 C 59 % 1010,2 hPa - 0,0 km/h - -8,9 C -7,4 C 0,0 km/h
Max-Datum _ 25.02.11 22.02.11 25.02.11 27.02.11 26.02.11 - 25.02.11 25.02.11 26.02.11
_ Max-Zeit 13:30 20:30 08:30 16:30 20:30 - 12:30 13:30 20:30
Maximum _ 10,1 C 90 % 1027,2 hPa 1,8 l/m 25,9 km/h
S-SO
- 7,2 C 10,1 C 14,4 km/h
S-SO
Durchschnitt _ 2,6 C 86 % 1018,3 hPa #10,7 l/m 0,7 km/h W 0,5 C 2,5 C 0,4 km/h
www.sexauwetter.de